SWA3176 TNCM-KMCO
Flight info
| Callsign | SWA3176 |
|---|---|
| Flight time | N/A |
| Altitude | 34000 |
| Route | VECTORS/10 PJM B520 STT RTE6 SJU DCT ACONY Y280 SUMAC DCT OCTAL MUNGI1 |
| Aircraft | B737/M-SADE2E3GIJ4RWZ/LB1D1 |
Departure
| Time | N/A |
|---|---|
| Airport | Princess Juliana International Airport (TNCM) |
Arrival
| Time | 2026-05-04 00:38 |
|---|---|
| Airport | Orlando International Airport (KMCO) |
| Time | Latitude | Longitude | Altitude | Speed | Heading |
|---|---|---|---|---|---|
| 2026-05-03 22:30 | 20.33589 | -68.26799 | 34056 ft | 428 kts | 309° |
| 2026-05-03 22:31 | 20.35499 | -68.29266 | 34058 ft | 436 kts | 309° |
| 2026-05-03 22:31 | 20.39420 | -68.34333 | 34056 ft | 449 kts | 309° |
| 2026-05-03 22:32 | 20.43436 | -68.39536 | 34051 ft | 459 kts | 308° |
| 2026-05-03 22:32 | 20.47007 | -68.45254 | 34046 ft | 467 kts | 302° |
| 2026-05-03 22:33 | 20.50402 | -68.51139 | 34033 ft | 469 kts | 301° |
| 2026-05-03 22:33 | 20.53828 | -68.57055 | 34040 ft | 469 kts | 302° |
| 2026-05-03 22:34 | 20.57285 | -68.62973 | 34039 ft | 469 kts | 302° |
| 2026-05-03 22:34 | 20.60720 | -68.68835 | 34038 ft | 468 kts | 302° |
| 2026-05-03 22:35 | 20.64168 | -68.74726 | 34040 ft | 468 kts | 302° |
| 2026-05-03 22:35 | 20.67611 | -68.80618 | 34041 ft | 467 kts | 302° |
| 2026-05-03 22:36 | 20.70470 | -68.85516 | 34045 ft | 466 kts | 302° |
| 2026-05-03 22:36 | 20.73906 | -68.91408 | 34042 ft | 466 kts | 302° |
| 2026-05-03 22:37 | 20.77330 | -68.97285 | 34041 ft | 466 kts | 302° |
| 2026-05-03 22:37 | 20.80752 | -69.03166 | 34040 ft | 465 kts | 301° |
| 2026-05-03 22:38 | 20.84172 | -69.09049 | 34041 ft | 465 kts | 301° |
| 2026-05-03 22:38 | 20.87567 | -69.14895 | 34044 ft | 465 kts | 301° |
| 2026-05-03 22:39 | 20.90978 | -69.20762 | 34044 ft | 464 kts | 301° |
| 2026-05-03 22:39 | 20.94390 | -69.26632 | 34042 ft | 464 kts | 301° |
| 2026-05-03 22:40 | 20.97795 | -69.32496 | 34038 ft | 464 kts | 301° |
| 2026-05-03 22:40 | 21.01200 | -69.38367 | 34037 ft | 464 kts | 301° |
| 2026-05-03 22:41 | 21.04600 | -69.44238 | 34048 ft | 464 kts | 301° |
| 2026-05-03 22:41 | 21.08000 | -69.50115 | 34035 ft | 463 kts | 301° |
| 2026-05-03 22:42 | 21.11373 | -69.55950 | 34042 ft | 463 kts | 301° |
| 2026-05-03 22:42 | 21.14761 | -69.61818 | 34038 ft | 463 kts | 301° |
| 2026-05-03 22:43 | 21.18154 | -69.67702 | 34036 ft | 463 kts | 301° |
| 2026-05-03 22:43 | 21.21542 | -69.73583 | 34035 ft | 463 kts | 301° |
| 2026-05-03 22:44 | 21.24924 | -69.79459 | 34038 ft | 463 kts | 301° |
| 2026-05-03 22:44 | 21.28301 | -69.85332 | 34040 ft | 462 kts | 301° |
| 2026-05-03 22:45 | 21.31677 | -69.91209 | 34039 ft | 462 kts | 301° |
| 2026-05-03 22:45 | 21.35048 | -69.97083 | 34042 ft | 462 kts | 301° |
| 2026-05-03 22:46 | 21.38413 | -70.02956 | 34038 ft | 462 kts | 301° |
| 2026-05-03 22:46 | 21.41779 | -70.08838 | 34044 ft | 462 kts | 301° |
| 2026-05-03 22:47 | 21.45139 | -70.14714 | 34037 ft | 462 kts | 301° |
| 2026-05-03 22:47 | 21.48493 | -70.20585 | 34036 ft | 461 kts | 300° |
| 2026-05-03 22:48 | 21.51824 | -70.26423 | 34043 ft | 461 kts | 300° |
| 2026-05-03 22:48 | 21.55176 | -70.32305 | 34041 ft | 461 kts | 300° |
| 2026-05-03 22:49 | 21.58525 | -70.38187 | 34036 ft | 461 kts | 300° |
| 2026-05-03 22:49 | 21.61870 | -70.44068 | 34035 ft | 461 kts | 300° |
| 2026-05-03 22:50 | 21.65213 | -70.49953 | 34043 ft | 461 kts | 300° |
| 2026-05-03 22:50 | 21.68554 | -70.55840 | 34034 ft | 461 kts | 300° |
| 2026-05-03 22:51 | 21.71887 | -70.61719 | 34037 ft | 460 kts | 300° |
| 2026-05-03 22:51 | 21.75220 | -70.67605 | 34044 ft | 460 kts | 300° |
| 2026-05-03 22:52 | 21.78547 | -70.73487 | 34041 ft | 460 kts | 300° |
| 2026-05-03 22:52 | 21.81852 | -70.79336 | 34034 ft | 460 kts | 300° |
| 2026-05-03 22:53 | 21.85177 | -70.85227 | 34037 ft | 460 kts | 300° |
| 2026-05-03 22:53 | 21.88499 | -70.91120 | 34043 ft | 460 kts | 300° |
| 2026-05-03 22:54 | 21.91817 | -70.97011 | 34041 ft | 460 kts | 300° |
| 2026-05-03 22:54 | 21.95134 | -71.02907 | 34037 ft | 460 kts | 300° |
| 2026-05-03 22:55 | 21.98449 | -71.08806 | 34041 ft | 460 kts | 300° |
| 2026-05-03 22:55 | 22.01765 | -71.14714 | 34035 ft | 460 kts | 300° |
| 2026-05-03 22:56 | 22.05081 | -71.20626 | 34042 ft | 460 kts | 300° |
| 2026-05-03 22:56 | 22.08392 | -71.26538 | 34051 ft | 460 kts | 300° |
| 2026-05-03 22:57 | 22.11678 | -71.32412 | 34046 ft | 460 kts | 300° |
| 2026-05-03 22:57 | 22.14985 | -71.38330 | 34048 ft | 460 kts | 300° |
| 2026-05-03 22:58 | 22.18287 | -71.44244 | 34042 ft | 460 kts | 300° |
| 2026-05-03 22:58 | 22.21588 | -71.50165 | 34040 ft | 460 kts | 300° |
| 2026-05-03 22:59 | 22.24891 | -71.56095 | 34043 ft | 460 kts | 300° |
| 2026-05-03 22:59 | 22.28187 | -71.62019 | 34037 ft | 460 kts | 300° |
| 2026-05-03 23:00 | 22.31482 | -71.67948 | 34042 ft | 460 kts | 300° |
| 2026-05-03 23:00 | 22.34779 | -71.73887 | 34038 ft | 460 kts | 300° |
| 2026-05-03 23:01 | 22.38071 | -71.79824 | 34043 ft | 460 kts | 300° |
| 2026-05-03 23:01 | 22.41340 | -71.85727 | 34047 ft | 460 kts | 300° |
| 2026-05-03 23:02 | 22.44621 | -71.91661 | 34049 ft | 460 kts | 300° |
| 2026-05-03 23:02 | 22.47903 | -71.97597 | 34050 ft | 460 kts | 300° |
| 2026-05-03 23:03 | 22.51174 | -72.03524 | 34045 ft | 460 kts | 300° |
| 2026-05-03 23:03 | 22.54447 | -72.09459 | 34051 ft | 459 kts | 300° |
| 2026-05-03 23:04 | 22.57712 | -72.15389 | 34042 ft | 459 kts | 300° |
| 2026-05-03 23:04 | 22.60977 | -72.21323 | 34041 ft | 458 kts | 299° |
| 2026-05-03 23:05 | 22.64232 | -72.27248 | 34039 ft | 458 kts | 299° |
| 2026-05-03 23:05 | 22.67488 | -72.33180 | 34045 ft | 458 kts | 299° |
| 2026-05-03 23:06 | 22.70738 | -72.39109 | 34044 ft | 458 kts | 299° |
| 2026-05-03 23:06 | 22.73983 | -72.45036 | 34046 ft | 457 kts | 299° |
| 2026-05-03 23:07 | 22.77225 | -72.50962 | 34047 ft | 457 kts | 299° |
| 2026-05-03 23:07 | 22.80464 | -72.56892 | 34044 ft | 457 kts | 299° |
| 2026-05-03 23:08 | 22.83674 | -72.62775 | 34038 ft | 457 kts | 299° |
| 2026-05-03 23:08 | 22.86907 | -72.68706 | 34043 ft | 456 kts | 299° |
| 2026-05-03 23:09 | 22.90135 | -72.74635 | 34039 ft | 456 kts | 299° |
| 2026-05-03 23:09 | 22.93359 | -72.80565 | 34039 ft | 456 kts | 299° |
| 2026-05-03 23:10 | 22.96578 | -72.86491 | 34054 ft | 456 kts | 299° |
| 2026-05-03 23:10 | 22.99793 | -72.92417 | 34042 ft | 455 kts | 299° |
| 2026-05-03 23:11 | 23.03001 | -72.98341 | 34042 ft | 455 kts | 298° |
| 2026-05-03 23:11 | 23.06184 | -73.04224 | 34043 ft | 455 kts | 298° |
| 2026-05-03 23:12 | 23.09385 | -73.10150 | 34050 ft | 454 kts | 298° |
| 2026-05-03 23:12 | 23.12580 | -73.16070 | 34042 ft | 454 kts | 298° |
| 2026-05-03 23:13 | 23.15771 | -73.21990 | 34046 ft | 454 kts | 298° |
| 2026-05-03 23:13 | 23.18956 | -73.27906 | 34048 ft | 453 kts | 298° |
| 2026-05-03 23:14 | 23.22137 | -73.33822 | 34047 ft | 453 kts | 298° |
| 2026-05-03 23:14 | 23.25317 | -73.39743 | 34050 ft | 453 kts | 298° |
| 2026-05-03 23:15 | 23.28491 | -73.45660 | 34044 ft | 453 kts | 298° |
| 2026-05-03 23:15 | 23.31660 | -73.51574 | 34048 ft | 452 kts | 298° |
| 2026-05-03 23:16 | 23.34830 | -73.57495 | 34049 ft | 452 kts | 298° |
| 2026-05-03 23:16 | 23.37994 | -73.63415 | 34045 ft | 452 kts | 298° |
| 2026-05-03 23:17 | 23.41129 | -73.69286 | 34043 ft | 452 kts | 298° |
| 2026-05-03 23:17 | 23.44282 | -73.75198 | 34044 ft | 451 kts | 298° |
| 2026-05-03 23:18 | 23.47430 | -73.81109 | 34044 ft | 451 kts | 298° |
| 2026-05-03 23:18 | 23.50574 | -73.87019 | 34045 ft | 451 kts | 297° |
| 2026-05-03 23:19 | 23.53714 | -73.92928 | 34046 ft | 450 kts | 297° |
| 2026-05-03 23:19 | 23.56854 | -73.98843 | 34048 ft | 450 kts | 297° |
| 2026-05-03 23:20 | 23.59986 | -74.04748 | 34046 ft | 450 kts | 297° |
| 2026-05-03 23:20 | 23.63119 | -74.10656 | 34050 ft | 450 kts | 297° |
| 2026-05-03 23:21 | 23.66247 | -74.16564 | 34048 ft | 450 kts | 297° |
| 2026-05-03 23:21 | 23.68842 | -74.21472 | 34049 ft | 449 kts | 297° |
| 2026-05-03 23:22 | 23.73523 | -74.30337 | 34044 ft | 449 kts | 297° |
| 2026-05-03 23:22 | 23.76638 | -74.36246 | 34043 ft | 449 kts | 297° |
| 2026-05-03 23:23 | 23.79747 | -74.42149 | 34046 ft | 448 kts | 297° |
| 2026-05-03 23:23 | 23.82849 | -74.48048 | 34044 ft | 448 kts | 297° |
| 2026-05-03 23:24 | 23.85949 | -74.53949 | 34045 ft | 447 kts | 297° |
| 2026-05-03 23:24 | 23.89045 | -74.59849 | 34044 ft | 447 kts | 297° |
| 2026-05-03 23:25 | 23.92129 | -74.65734 | 34044 ft | 447 kts | 297° |
| 2026-05-03 23:25 | 23.95218 | -74.71636 | 34042 ft | 446 kts | 297° |
| 2026-05-03 23:26 | 23.98298 | -74.77528 | 34045 ft | 446 kts | 297° |
| 2026-05-03 23:26 | 24.01369 | -74.83410 | 34045 ft | 445 kts | 297° |
| 2026-05-03 23:27 | 24.04436 | -74.89291 | 34046 ft | 445 kts | 296° |
| 2026-05-03 23:27 | 24.07480 | -74.95135 | 34043 ft | 444 kts | 296° |
| 2026-05-03 23:28 | 24.10538 | -75.01012 | 34045 ft | 444 kts | 296° |
| 2026-05-03 23:28 | 24.13589 | -75.06885 | 34064 ft | 444 kts | 296° |
| 2026-05-03 23:29 | 24.16646 | -75.12793 | 34045 ft | 442 kts | 295° |
| 2026-05-03 23:29 | 24.19682 | -75.18645 | 34048 ft | 442 kts | 295° |
| 2026-05-03 23:30 | 24.22715 | -75.24493 | 34047 ft | 441 kts | 295° |
| 2026-05-03 23:30 | 24.25717 | -75.30295 | 34050 ft | 441 kts | 295° |
| 2026-05-03 23:31 | 24.28741 | -75.36148 | 34046 ft | 440 kts | 294° |
| 2026-05-03 23:31 | 24.31755 | -75.41991 | 34047 ft | 440 kts | 294° |
| 2026-05-03 23:32 | 24.34766 | -75.47836 | 34051 ft | 440 kts | 294° |
| 2026-05-03 23:32 | 24.37773 | -75.53681 | 34042 ft | 440 kts | 294° |
| 2026-05-03 23:33 | 24.40778 | -75.59526 | 34043 ft | 440 kts | 294° |
| 2026-05-03 23:33 | 24.43780 | -75.65373 | 34043 ft | 439 kts | 294° |
| 2026-05-03 23:34 | 24.46777 | -75.71219 | 34047 ft | 439 kts | 294° |
| 2026-05-03 23:34 | 24.49769 | -75.77062 | 34047 ft | 439 kts | 294° |
| 2026-05-03 23:35 | 24.52760 | -75.82910 | 34050 ft | 439 kts | 294° |
| 2026-05-03 23:35 | 24.55746 | -75.88756 | 34046 ft | 439 kts | 294° |
| 2026-05-03 23:36 | 24.58730 | -75.94604 | 34048 ft | 439 kts | 294° |
| 2026-05-03 23:36 | 24.61710 | -76.00452 | 34048 ft | 438 kts | 294° |
| 2026-05-03 23:37 | 24.64685 | -76.06298 | 34042 ft | 438 kts | 294° |
| 2026-05-03 23:37 | 24.67638 | -76.12108 | 34046 ft | 438 kts | 294° |
| 2026-05-03 23:38 | 24.70605 | -76.17952 | 34045 ft | 437 kts | 294° |
| 2026-05-03 23:38 | 24.73568 | -76.23795 | 34044 ft | 437 kts | 294° |
| 2026-05-03 23:39 | 24.76527 | -76.29639 | 34044 ft | 437 kts | 294° |
| 2026-05-03 23:39 | 24.79484 | -76.35484 | 34044 ft | 437 kts | 294° |
| 2026-05-03 23:40 | 24.82434 | -76.41324 | 34045 ft | 436 kts | 294° |
| 2026-05-03 23:40 | 24.85381 | -76.47164 | 34048 ft | 436 kts | 294° |
| 2026-05-03 23:41 | 24.88325 | -76.53007 | 34038 ft | 436 kts | 294° |
| 2026-05-03 23:41 | 24.91264 | -76.58846 | 34037 ft | 436 kts | 294° |
| 2026-05-03 23:42 | 24.94201 | -76.64691 | 34048 ft | 436 kts | 294° |
| 2026-05-03 23:42 | 24.97134 | -76.70533 | 34043 ft | 436 kts | 294° |
| 2026-05-03 23:43 | 25.00049 | -76.76346 | 34045 ft | 436 kts | 294° |
| 2026-05-03 23:43 | 25.02977 | -76.82193 | 34041 ft | 436 kts | 294° |
| 2026-05-03 23:44 | 25.05905 | -76.88049 | 34045 ft | 436 kts | 294° |
| 2026-05-03 23:44 | 25.08835 | -76.93914 | 34046 ft | 436 kts | 294° |
| 2026-05-03 23:45 | 25.11760 | -76.99778 | 34037 ft | 436 kts | 294° |
| 2026-05-03 23:45 | 25.14684 | -77.05647 | 34040 ft | 436 kts | 294° |
| 2026-05-03 23:46 | 25.17605 | -77.11518 | 34038 ft | 436 kts | 294° |
| 2026-05-03 23:46 | 25.20523 | -77.17389 | 34033 ft | 436 kts | 294° |
| 2026-05-03 23:47 | 25.23437 | -77.23261 | 34034 ft | 436 kts | 294° |
| 2026-05-03 23:47 | 25.26345 | -77.29128 | 34031 ft | 435 kts | 294° |
| 2026-05-03 23:48 | 25.29193 | -77.34967 | 34030 ft | 433 kts | 291° |
| 2026-05-03 23:48 | 25.31269 | -77.41153 | 34027 ft | 428 kts | 284° |
| 2026-05-03 23:49 | 25.33173 | -77.47387 | 34033 ft | 428 kts | 284° |
| 2026-05-03 23:49 | 25.35088 | -77.53619 | 34033 ft | 428 kts | 284° |
| 2026-05-03 23:50 | 25.36690 | -77.58795 | 34035 ft | 428 kts | 284° |
| 2026-05-03 23:50 | 25.38945 | -77.66065 | 34029 ft | 427 kts | 284° |
| 2026-05-03 23:51 | 25.40871 | -77.72276 | 34032 ft | 426 kts | 284° |
| 2026-05-03 23:51 | 25.42791 | -77.78480 | 34032 ft | 426 kts | 284° |
| 2026-05-03 23:52 | 25.44703 | -77.84671 | 34029 ft | 425 kts | 284° |
| 2026-05-03 23:52 | 25.46610 | -77.90856 | 34032 ft | 425 kts | 284° |
| 2026-05-03 23:53 | 25.48503 | -77.97005 | 34030 ft | 424 kts | 284° |
| 2026-05-03 23:53 | 25.50416 | -78.03231 | 34031 ft | 424 kts | 284° |
| 2026-05-03 23:54 | 25.52300 | -78.09372 | 34031 ft | 424 kts | 284° |
| 2026-05-03 23:54 | 25.54195 | -78.15560 | 34032 ft | 424 kts | 284° |
| 2026-05-03 23:55 | 25.56087 | -78.21746 | 34029 ft | 424 kts | 284° |
| 2026-05-03 23:55 | 25.57977 | -78.27936 | 34026 ft | 424 kts | 284° |
| 2026-05-03 23:56 | 25.59862 | -78.34125 | 34028 ft | 424 kts | 284° |
| 2026-05-03 23:56 | 25.61746 | -78.40317 | 34024 ft | 424 kts | 284° |
| 2026-05-03 23:57 | 25.63627 | -78.46512 | 34028 ft | 424 kts | 284° |
| 2026-05-03 23:57 | 25.65506 | -78.52708 | 34026 ft | 424 kts | 284° |
| 2026-05-03 23:58 | 25.67381 | -78.58904 | 34033 ft | 424 kts | 284° |
| 2026-05-03 23:58 | 25.69255 | -78.65105 | 34030 ft | 424 kts | 283° |
| 2026-05-03 23:59 | 25.71126 | -78.71306 | 34032 ft | 424 kts | 283° |
| 2026-05-03 23:59 | 25.72979 | -78.77462 | 34022 ft | 424 kts | 283° |
| 2026-05-04 00:00 | 25.74841 | -78.83656 | 34028 ft | 423 kts | 283° |
| 2026-05-04 00:00 | 25.76701 | -78.89851 | 34031 ft | 422 kts | 283° |
| 2026-05-04 00:01 | 25.78552 | -78.96032 | 34023 ft | 422 kts | 283° |
| 2026-05-04 00:01 | 25.80398 | -79.02205 | 34037 ft | 421 kts | 283° |
| 2026-05-04 00:02 | 25.82239 | -79.08370 | 34020 ft | 421 kts | 282° |
| 2026-05-04 00:02 | 25.84076 | -79.14535 | 34027 ft | 420 kts | 282° |
| 2026-05-04 00:03 | 25.85910 | -79.20700 | 34029 ft | 420 kts | 282° |
| 2026-05-04 00:03 | 25.87740 | -79.26863 | 34028 ft | 421 kts | 282° |
| 2026-05-04 00:04 | 25.89571 | -79.33041 | 34025 ft | 421 kts | 282° |
| 2026-05-04 00:04 | 25.91388 | -79.39181 | 34025 ft | 421 kts | 282° |
| 2026-05-04 00:05 | 25.93219 | -79.45377 | 34021 ft | 422 kts | 283° |
| 2026-05-04 00:05 | 25.95047 | -79.51576 | 34023 ft | 423 kts | 283° |
| 2026-05-04 00:06 | 25.96874 | -79.57783 | 34022 ft | 423 kts | 283° |
| 2026-05-04 00:06 | 25.98707 | -79.64019 | 34025 ft | 424 kts | 283° |
| 2026-05-04 00:07 | 26.00536 | -79.70254 | 34023 ft | 425 kts | 283° |
| 2026-05-04 00:07 | 26.02366 | -79.76502 | 34027 ft | 425 kts | 283° |
| 2026-05-04 00:08 | 26.03888 | -79.81706 | 34024 ft | 426 kts | 283° |
| 2026-05-04 00:08 | 26.05674 | -79.87799 | 34015 ft | 397 kts | 282° |
| 2026-05-04 00:09 | 26.07359 | -79.93581 | 34039 ft | 398 kts | 282° |
| 2026-05-04 00:09 | 26.09084 | -79.99552 | 34043 ft | 413 kts | 282° |
| 2026-05-04 00:10 | 26.09975 | -80.02628 | 33489 ft | 427 kts | 282° |
| 2026-05-04 00:10 | 26.10885 | -80.05755 | 33135 ft | 418 kts | 282° |
| 2026-05-04 00:10 | 26.11781 | -80.08827 | 32346 ft | 416 kts | 282° |
| 2026-05-04 00:10 | 26.12664 | -80.11864 | 31729 ft | 410 kts | 282° |
| 2026-05-04 00:11 | 26.13533 | -80.14863 | 31114 ft | 404 kts | 282° |
| 2026-05-04 00:11 | 26.14697 | -80.17717 | 30486 ft | 412 kts | 296° |
| 2026-05-04 00:11 | 26.16509 | -80.20214 | 29989 ft | 416 kts | 307° |
| 2026-05-04 00:11 | 26.18753 | -80.22238 | 29665 ft | 420 kts | 320° |
| 2026-05-04 00:12 | 26.21347 | -80.23735 | 29451 ft | 419 kts | 325° |
| 2026-05-04 00:12 | 26.24028 | -80.25120 | 29207 ft | 429 kts | 327° |
| 2026-05-04 00:12 | 26.26771 | -80.26501 | 28950 ft | 434 kts | 327° |
| 2026-05-04 00:12 | 26.29517 | -80.27880 | 28683 ft | 431 kts | 327° |
| 2026-05-04 00:13 | 26.32236 | -80.29259 | 28429 ft | 427 kts | 326° |
| 2026-05-04 00:13 | 26.34921 | -80.30638 | 28193 ft | 424 kts | 326° |
| 2026-05-04 00:13 | 26.37588 | -80.32022 | 27951 ft | 421 kts | 326° |
| 2026-05-04 00:13 | 26.40235 | -80.33405 | 27712 ft | 419 kts | 326° |
| 2026-05-04 00:14 | 26.42840 | -80.34770 | 27478 ft | 418 kts | 326° |
| 2026-05-04 00:14 | 26.45473 | -80.36151 | 27242 ft | 418 kts | 326° |
| 2026-05-04 00:14 | 26.48102 | -80.37530 | 27004 ft | 417 kts | 326° |
| 2026-05-04 00:14 | 26.50727 | -80.38907 | 26765 ft | 417 kts | 326° |
| 2026-05-04 00:15 | 26.53353 | -80.40284 | 26532 ft | 416 kts | 326° |
| 2026-05-04 00:15 | 26.55975 | -80.41659 | 26290 ft | 415 kts | 326° |
| 2026-05-04 00:15 | 26.58588 | -80.43030 | 26063 ft | 414 kts | 326° |
| 2026-05-04 00:15 | 26.61190 | -80.44396 | 25816 ft | 413 kts | 326° |
| 2026-05-04 00:16 | 26.63822 | -80.45696 | 25578 ft | 415 kts | 329° |
| 2026-05-04 00:16 | 26.66523 | -80.46851 | 25350 ft | 415 kts | 331° |
| 2026-05-04 00:16 | 26.69241 | -80.47942 | 25108 ft | 414 kts | 332° |
| 2026-05-04 00:16 | 26.71952 | -80.49014 | 24865 ft | 412 kts | 332° |
| 2026-05-04 00:17 | 26.74649 | -80.50091 | 24630 ft | 410 kts | 331° |
| 2026-05-04 00:17 | 26.77327 | -80.51174 | 24396 ft | 408 kts | 331° |
| 2026-05-04 00:17 | 26.79992 | -80.52265 | 24158 ft | 407 kts | 331° |
| 2026-05-04 00:17 | 26.82643 | -80.53357 | 23921 ft | 405 kts | 331° |
| 2026-05-04 00:18 | 26.85285 | -80.54451 | 23688 ft | 404 kts | 331° |
| 2026-05-04 00:18 | 26.87914 | -80.55541 | 23433 ft | 402 kts | 331° |
| 2026-05-04 00:18 | 26.90531 | -80.56626 | 23178 ft | 400 kts | 331° |
| 2026-05-04 00:18 | 26.93140 | -80.57709 | 22936 ft | 398 kts | 331° |
| 2026-05-04 00:19 | 26.95734 | -80.58785 | 22702 ft | 396 kts | 331° |
| 2026-05-04 00:19 | 26.98314 | -80.59857 | 22473 ft | 395 kts | 331° |
| 2026-05-04 00:19 | 27.00886 | -80.60926 | 22251 ft | 393 kts | 331° |
| 2026-05-04 00:19 | 27.03446 | -80.61990 | 22025 ft | 392 kts | 331° |
| 2026-05-04 00:20 | 27.06003 | -80.63054 | 21801 ft | 391 kts | 331° |
| 2026-05-04 00:20 | 27.08514 | -80.64098 | 21587 ft | 390 kts | 331° |
| 2026-05-04 00:20 | 27.11056 | -80.65156 | 21364 ft | 389 kts | 331° |
| 2026-05-04 00:20 | 27.13588 | -80.66214 | 21142 ft | 388 kts | 331° |
| 2026-05-04 00:21 | 27.16116 | -80.67273 | 20919 ft | 387 kts | 331° |
| 2026-05-04 00:21 | 27.18638 | -80.68331 | 20702 ft | 386 kts | 331° |
| 2026-05-04 00:21 | 27.21148 | -80.69384 | 20480 ft | 385 kts | 331° |
| 2026-05-04 00:21 | 27.23652 | -80.70435 | 20261 ft | 383 kts | 331° |
| 2026-05-04 00:22 | 27.26147 | -80.71482 | 20043 ft | 382 kts | 331° |
| 2026-05-04 00:22 | 27.28631 | -80.72526 | 19831 ft | 380 kts | 331° |
| 2026-05-04 00:22 | 27.31069 | -80.73546 | 19561 ft | 369 kts | 331° |
| 2026-05-04 00:22 | 27.33476 | -80.74559 | 19313 ft | 371 kts | 331° |
| 2026-05-04 00:23 | 27.35901 | -80.75583 | 19117 ft | 374 kts | 331° |
| 2026-05-04 00:23 | 27.38335 | -80.76615 | 18723 ft | 374 kts | 331° |
| 2026-05-04 00:23 | 27.40755 | -80.77657 | 18234 ft | 370 kts | 331° |
| 2026-05-04 00:23 | 27.43150 | -80.78695 | 17689 ft | 368 kts | 331° |
| 2026-05-04 00:24 | 27.45526 | -80.79727 | 17186 ft | 364 kts | 332° |
| 2026-05-04 00:24 | 27.47880 | -80.80749 | 16703 ft | 361 kts | 332° |
| 2026-05-04 00:24 | 27.50211 | -80.81760 | 16230 ft | 358 kts | 332° |
| 2026-05-04 00:24 | 27.52524 | -80.82763 | 15769 ft | 355 kts | 332° |
| 2026-05-04 00:25 | 27.54792 | -80.83747 | 15313 ft | 353 kts | 333° |
| 2026-05-04 00:25 | 27.57065 | -80.84755 | 14892 ft | 349 kts | 331° |
| 2026-05-04 00:25 | 27.59262 | -80.85853 | 14559 ft | 342 kts | 329° |
| 2026-05-04 00:25 | 27.61421 | -80.86991 | 14237 ft | 343 kts | 329° |
| 2026-05-04 00:26 | 27.63592 | -80.88154 | 13897 ft | 348 kts | 329° |
| 2026-05-04 00:26 | 27.65782 | -80.89323 | 13537 ft | 348 kts | 329° |
| 2026-05-04 00:26 | 27.67963 | -80.90477 | 13182 ft | 344 kts | 330° |
| 2026-05-04 00:26 | 27.70111 | -80.91608 | 12847 ft | 338 kts | 330° |
| 2026-05-04 00:27 | 27.72222 | -80.92716 | 12520 ft | 333 kts | 330° |
| 2026-05-04 00:27 | 27.74317 | -80.93817 | 12208 ft | 331 kts | 330° |
| 2026-05-04 00:27 | 27.76399 | -80.94911 | 11893 ft | 329 kts | 330° |
| 2026-05-04 00:27 | 27.78470 | -80.96000 | 11582 ft | 328 kts | 330° |
| 2026-05-04 00:28 | 27.80534 | -80.97085 | 11276 ft | 327 kts | 330° |
| 2026-05-04 00:28 | 27.82593 | -80.98168 | 10964 ft | 326 kts | 330° |
| 2026-05-04 00:28 | 27.84631 | -80.99239 | 10644 ft | 319 kts | 330° |
| 2026-05-04 00:28 | 27.86616 | -81.00281 | 10344 ft | 311 kts | 330° |
| 2026-05-04 00:29 | 27.88561 | -81.01304 | 10057 ft | 307 kts | 330° |
| 2026-05-04 00:29 | 27.90494 | -81.02323 | 9745 ft | 307 kts | 331° |
| 2026-05-04 00:29 | 27.92407 | -81.03332 | 9447 ft | 307 kts | 331° |
| 2026-05-04 00:29 | 27.94216 | -81.04567 | 9125 ft | 302 kts | 317° |
| 2026-05-04 00:30 | 27.95761 | -81.06163 | 8859 ft | 300 kts | 314° |
| 2026-05-04 00:30 | 27.97268 | -81.07798 | 8565 ft | 299 kts | 314° |
| 2026-05-04 00:30 | 27.98768 | -81.09431 | 8283 ft | 299 kts | 314° |
| 2026-05-04 00:30 | 28.00270 | -81.11057 | 7996 ft | 299 kts | 314° |
| 2026-05-04 00:31 | 28.01777 | -81.12675 | 7709 ft | 299 kts | 315° |
| 2026-05-04 00:31 | 28.03287 | -81.14291 | 7430 ft | 299 kts | 315° |
| 2026-05-04 00:31 | 28.04800 | -81.15905 | 7147 ft | 299 kts | 315° |
| 2026-05-04 00:31 | 28.06316 | -81.17519 | 6873 ft | 299 kts | 316° |
| 2026-05-04 00:32 | 28.07830 | -81.19132 | 6581 ft | 300 kts | 316° |
| 2026-05-04 00:32 | 28.09355 | -81.20755 | 6285 ft | 300 kts | 316° |
| 2026-05-04 00:32 | 28.10881 | -81.22378 | 5986 ft | 301 kts | 316° |
| 2026-05-04 00:32 | 28.12405 | -81.24000 | 5687 ft | 301 kts | 317° |
| 2026-05-04 00:33 | 28.13929 | -81.25623 | 5386 ft | 300 kts | 317° |
| 2026-05-04 00:33 | 28.17439 | -81.27979 | 4730 ft | 296 kts | 353° |
| 2026-05-04 00:33 | 28.19475 | -81.28077 | 4352 ft | 290 kts | 1° |
| 2026-05-04 00:34 | 28.21482 | -81.28073 | 3990 ft | 286 kts | 2° |
| 2026-05-04 00:34 | 28.23461 | -81.28057 | 3645 ft | 285 kts | 2° |
| 2026-05-04 00:34 | 28.25447 | -81.28068 | 3284 ft | 285 kts | 1° |
| 2026-05-04 00:34 | 28.27402 | -81.28090 | 2900 ft | 274 kts | 2° |
| 2026-05-04 00:35 | 28.29211 | -81.28112 | 2532 ft | 246 kts | 3° |
| 2026-05-04 00:35 | 28.30843 | -81.28128 | 2240 ft | 226 kts | 3° |
| 2026-05-04 00:35 | 28.32349 | -81.28142 | 1967 ft | 213 kts | 3° |
| 2026-05-04 00:35 | 28.33796 | -81.28156 | 1680 ft | 200 kts | 4° |
| 2026-05-04 00:36 | 28.35113 | -81.28169 | 1419 ft | 180 kts | 4° |
| 2026-05-04 00:36 | 28.36306 | -81.28179 | 1186 ft | 162 kts | 3° |
| 2026-05-04 00:36 | 28.37376 | -81.28192 | 1041 ft | 143 kts | 4° |
| 2026-05-04 00:36 | 28.38334 | -81.28200 | 813 ft | 134 kts | 3° |
| 2026-05-04 00:37 | 28.39271 | -81.28208 | 636 ft | 131 kts | 3° |
| 2026-05-04 00:37 | 28.40169 | -81.28219 | 483 ft | 130 kts | 4° |
| 2026-05-04 00:37 | 28.41089 | -81.28228 | 304 ft | 131 kts | 4° |
| 2026-05-04 00:37 | 28.42000 | -81.28237 | 122 ft | 130 kts | 4° |
| 2026-05-04 00:38 | 28.42818 | -81.28243 | 98 ft | 97 kts | 360° |
| 2026-05-04 00:38 | 28.43377 | -81.28247 | 96 ft | 70 kts | 359° |
| 2026-05-04 00:38 | 28.43743 | -81.28256 | 98 ft | 38 kts | 352° |
| 2026-05-04 00:38 | 28.43875 | -81.28435 | 94 ft | 26 kts | 271° |
| 2026-05-04 00:39 | 28.43874 | -81.28609 | 100 ft | 21 kts | 269° |
| 2026-05-04 00:39 | 28.43873 | -81.28773 | 106 ft | 21 kts | 269° |
| 2026-05-04 00:39 | 28.43871 | -81.28943 | 106 ft | 24 kts | 268° |
| 2026-05-04 00:39 | 28.43869 | -81.29151 | 101 ft | 30 kts | 269° |